Time;durP1;ratioP1;P1;durP2;ratioP2;P2;SDS_P1;SDS_P2;PMS_P1;PMS_P2;Temp;Humidity;BMP_temperature;BMP_pressure;BME280_temperature;BME280_humidity;BME280_pressure;Samples;Min_cycle;Max_cycle;Signal;HPM_P1;HPM_P2
2022/06/30 00:02:18;;;;;;;1.98;1.60;;;19.20;99.90;;;;;;5033146;28;20026;-73
2022/06/30 00:04:44;;;;;;;3.33;1.45;;;19.20;99.90;;;;;;5034000;28;20236;-74
2022/06/30 00:07:10;;;;;;;1.85;1.40;;;19.10;99.90;;;;;;5030971;28;20073;-74
2022/06/30 00:09:35;;;;;;;2.22;1.58;;;19.10;99.90;;;;;;5032483;28;20101;-74
2022/06/30 00:12:01;;;;;;;3.03;1.50;;;18.90;99.90;;;;;;5037195;28;20033;-75
2022/06/30 00:14:27;;;;;;;2.25;2.00;;;18.80;99.90;;;;;;5034442;28;20712;-74
2022/06/30 00:16:53;;;;;;;2.40;1.90;;;18.80;99.90;;;;;;5032415;28;20025;-73
2022/06/30 00:19:18;;;;;;;3.25;1.65;;;18.90;99.90;;;;;;5038728;28;20037;-73
2022/06/30 00:21:44;;;;;;;2.97;1.80;;;18.90;99.90;;;;;;5049250;28;20037;-73
2022/06/30 00:24:10;;;;;;;3.15;1.70;;;19.00;99.90;;;;;;5003845;28;20642;-74
2022/06/30 00:26:35;;;;;;;2.30;1.95;;;18.90;99.90;;;;;;5032975;28;20033;-74
2022/06/30 00:29:01;;;;;;;3.03;2.45;;;18.90;99.90;;;;;;5024974;28;20111;-73
2022/06/30 00:31:27;;;;;;;2.40;1.60;;;18.80;99.90;;;;;;5025974;28;21755;-73
2022/06/30 00:33:52;;;;;;;2.92;1.73;;;18.80;99.90;;;;;;5036972;28;20049;-73
2022/06/30 00:36:18;;;;;;;3.20;1.65;;;18.90;99.90;;;;;;5024016;28;20037;-73
2022/06/30 00:38:44;;;;;;;3.17;2.28;;;18.90;99.90;;;;;;5039048;28;20021;-74
2022/06/30 00:41:10;;;;;;;2.10;1.80;;;19.00;99.90;;;;;;5019743;28;20686;-73
2022/06/30 00:43:47;;;;;;;5.18;1.95;;;18.90;99.90;;;;;;5002604;28;20226;-73
2022/06/30 00:46:13;;;;;;;2.42;2.22;;;18.90;99.90;;;;;;5031608;28;20079;-73
2022/06/30 00:48:39;;;;;;;3.65;2.45;;;19.00;99.90;;;;;;5036929;28;20029;-75
2022/06/30 00:51:05;;;;;;;2.50;1.63;;;19.00;99.90;;;;;;5018435;28;20061;-73
2022/06/30 00:53:50;;;;;;;2.10;1.70;;;19.10;99.90;;;;;;5030410;28;20051;-73
2022/06/30 00:56:17;;;;;;;3.00;2.55;;;19.00;99.90;;;;;;5031638;28;20075;-74
2022/06/30 00:58:44;;;;;;;2.40;2.05;;;19.00;99.90;;;;;;5017653;28;20040;-73
2022/06/30 01:01:12;;;;;;;2.35;2.10;;;19.00;99.90;;;;;;5017135;28;20131;-73
2022/06/30 01:03:38;;;;;;;3.75;2.45;;;19.00;99.90;;;;;;5032494;28;20484;-73
2022/06/30 01:06:05;;;;;;;3.33;2.25;;;18.80;99.90;;;;;;5025902;28;20046;-73
2022/06/30 01:08:32;;;;;;;2.42;1.83;;;18.80;99.90;;;;;;5035147;28;20036;-73
2022/06/30 01:13:44;;;;;;;2.97;1.95;;;18.90;99.90;;;;;;5032618;28;20022;-73
2022/06/30 01:16:10;;;;;;;3.20;2.20;;;18.80;99.90;;;;;;5032278;28;20067;-73
2022/06/30 01:18:36;;;;;;;2.60;2.25;;;18.90;99.90;;;;;;5032543;28;20026;-74
2022/06/30 01:21:02;;;;;;;2.80;2.30;;;18.80;99.90;;;;;;5025869;28;20041;-78
2022/06/30 01:23:28;;;;;;;3.15;2.85;;;18.80;99.90;;;;;;5012895;28;20120;-73
2022/06/30 01:25:53;;;;;;;4.35;2.67;;;18.50;99.90;;;;;;5026195;28;20167;-73
2022/06/30 01:28:20;;;;;;;2.63;2.35;;;18.40;99.90;;;;;;5033213;28;20041;-73
2022/06/30 01:30:46;;;;;;;3.20;2.90;;;18.30;99.90;;;;;;5030170;28;20608;-74
2022/06/30 01:33:12;;;;;;;3.40;2.85;;;18.20;99.90;;;;;;5029437;28;20020;-73
2022/06/30 01:35:38;;;;;;;2.95;2.67;;;18.10;99.90;;;;;;5033951;28;20074;-73
2022/06/30 01:38:05;;;;;;;3.15;2.85;;;18.10;99.90;;;;;;5011228;28;20034;-73
2022/06/30 01:40:35;;;;;;;4.28;3.47;;;18.00;99.90;;;;;;5034523;28;20038;-76
2022/06/30 01:43:05;;;;;;;3.42;3.13;;;17.90;99.90;;;;;;5030611;28;20071;-73
2022/06/30 01:45:31;;;;;;;3.67;3.38;;;17.90;99.90;;;;;;5018114;28;20029;-73
2022/06/30 01:47:57;;;;;;;4.82;3.75;;;17.80;99.90;;;;;;5032885;28;20022;-74
2022/06/30 01:50:25;;;;;;;3.65;3.15;;;17.80;99.90;;;;;;5037613;28;20033;-74
2022/06/30 01:52:51;;;;;;;3.63;2.97;;;17.70;99.90;;;;;;5020828;28;20041;-74
2022/06/30 01:55:17;;;;;;;4.15;3.50;;;17.70;99.90;;;;;;5036610;28;20025;-73
2022/06/30 01:57:43;;;;;;;4.32;3.45;;;17.60;99.90;;;;;;5026528;28;20470;-73
2022/06/30 02:00:12;;;;;;;3.67;3.38;;;17.60;99.90;;;;;;5032598;28;20052;-73
2022/06/30 02:02:37;;;;;;;3.80;2.70;;;17.50;99.90;;;;;;5040373;28;20586;-74
2022/06/30 02:05:04;;;;;;;3.60;3.30;;;17.50;99.90;;;;;;5036636;28;20025;-75
2022/06/30 02:07:30;;;;;;;3.30;2.88;;;17.50;99.90;;;;;;5042095;28;20040;-73
2022/06/30 02:09:56;;;;;;;4.03;3.13;;;17.40;99.90;;;;;;5040978;28;20040;-73
2022/06/30 02:15:09;;;;;;;3.42;3.13;;;17.20;99.90;;;;;;5041375;28;20041;-73
2022/06/30 02:17:36;;;;;;;3.97;3.67;;;17.20;99.90;;;;;;5021191;28;20039;-73
2022/06/30 02:20:03;;;;;;;4.28;3.88;;;17.20;99.90;;;;;;5018442;28;20665;-73
2022/06/30 02:22:29;;;;;;;4.03;3.72;;;17.20;99.90;;;;;;5022792;28;20104;-73
2022/06/30 02:24:54;;;;;;;5.10;4.00;;;17.10;99.90;;;;;;5021674;28;20115;-73
2022/06/30 02:27:23;;;;;;;4.78;4.38;;;17.10;99.90;;;;;;5033750;28;20534;-74
2022/06/30 02:29:49;;;;;;;4.20;3.75;;;17.10;99.90;;;;;;5032296;28;20029;-73
2022/06/30 02:32:15;;;;;;;4.28;3.80;;;17.10;99.90;;;;;;5022799;28;20544;-74
2022/06/30 02:34:41;;;;;;;5.13;4.68;;;17.10;99.90;;;;;;5037869;28;20104;-73
2022/06/30 02:37:06;;;;;;;4.72;4.32;;;17.10;99.90;;;;;;5009524;28;20051;-75
2022/06/30 02:39:32;;;;;;;5.15;4.65;;;17.00;99.90;;;;;;5040477;28;20032;-73
2022/06/30 02:41:58;;;;;;;5.30;4.72;;;17.00;99.90;;;;;;5036129;28;20444;-73
2022/06/30 02:44:23;;;;;;;4.90;4.40;;;17.00;99.90;;;;;;5034121;28;20022;-74
2022/06/30 02:46:50;;;;;;;5.55;4.82;;;16.90;99.90;;;;;;5030361;28;20482;-73
2022/06/30 02:49:18;;;;;;;4.78;4.38;;;16.90;99.90;;;;;;5018770;28;20061;-73
2022/06/30 02:51:44;;;;;;;4.35;3.78;;;16.80;99.90;;;;;;5023127;28;20060;-73
2022/06/30 02:54:10;;;;;;;5.05;4.53;;;16.80;99.90;;;;;;5025046;28;20650;-73
2022/06/30 02:56:35;;;;;;;5.25;4.85;;;16.80;99.90;;;;;;5021788;28;20029;-73
2022/06/30 02:59:01;;;;;;;4.97;4.47;;;16.70;99.90;;;;;;5026095;28;20629;-73
2022/06/30 03:01:27;;;;;;;5.35;4.85;;;16.70;99.90;;;;;;5021741;28;20048;-73
2022/06/30 03:03:52;;;;;;;4.78;4.38;;;16.60;99.90;;;;;;5003992;28;20029;-73
2022/06/30 03:06:18;;;;;;;5.30;4.90;;;16.70;99.90;;;;;;5021303;28;20064;-74
2022/06/30 03:08:44;;;;;;;4.38;3.97;;;16.60;99.90;;;;;;5028685;28;20261;-73
2022/06/30 03:11:16;;;;;;;4.68;4.18;;;16.70;99.90;;;;;;5019332;28;20607;-75
2022/06/30 03:13:45;;;;;;;5.22;4.75;;;16.60;99.90;;;;;;5028084;28;20029;-73
2022/06/30 03:16:11;;;;;;;5.18;4.70;;;16.60;99.90;;;;;;5041260;28;20040;-73
2022/06/30 03:18:38;;;;;;;4.72;4.32;;;16.60;99.90;;;;;;5022731;28;20030;-73
2022/06/30 03:21:04;;;;;;;5.38;4.93;;;16.60;99.90;;;;;;5038280;28;20056;-73
2022/06/30 03:23:29;;;;;;;5.75;5.25;;;16.60;99.90;;;;;;5022891;28;20026;-73
2022/06/30 03:25:55;;;;;;;5.80;5.30;;;16.60;99.90;;;;;;5040609;28;20120;-73
2022/06/30 03:28:21;;;;;;;5.30;4.90;;;16.70;99.90;;;;;;5026851;28;20033;-73
2022/06/30 03:30:47;;;;;;;5.70;5.20;;;16.60;99.90;;;;;;5007586;28;20119;-73
2022/06/30 03:33:16;;;;;;;5.50;5.00;;;16.60;99.90;;;;;;5039243;28;20021;-74
2022/06/30 03:35:42;;;;;;;5.60;5.10;;;16.60;99.90;;;;;;5004761;28;20029;-73
2022/06/30 03:38:08;;;;;;;6.28;5.15;;;16.60;99.90;;;;;;5034368;28;20082;-73
2022/06/30 03:40:34;;;;;;;5.05;4.47;;;16.60;99.90;;;;;;5038030;28;20124;-73
2022/06/30 03:43:00;;;;;;;5.50;5.03;;;16.60;99.90;;;;;;5038436;28;20079;-73
2022/06/30 03:45:27;;;;;;;6.53;5.85;;;16.60;99.90;;;;;;5037540;28;20447;-73
2022/06/30 03:47:53;;;;;;;5.45;4.93;;;16.60;99.90;;;;;;5035898;28;20346;-73
2022/06/30 03:50:19;;;;;;;5.72;5.22;;;16.60;99.90;;;;;;5024149;28;20039;-73
2022/06/30 03:52:44;;;;;;;6.32;5.20;;;16.60;99.90;;;;;;5018292;28;20104;-73
2022/06/30 03:55:10;;;;;;;6.03;5.53;;;16.60;99.90;;;;;;5029382;28;20041;-73
2022/06/30 03:57:36;;;;;;;6.60;6.00;;;16.70;99.90;;;;;;5021221;28;20037;-73
2022/06/30 04:00:04;;;;;;;6.28;5.78;;;16.70;99.90;;;;;;5006074;28;20092;-73
2022/06/30 04:02:31;;;;;;;6.55;5.95;;;16.60;99.90;;;;;;5034353;28;20275;-73
2022/06/30 04:04:57;;;;;;;6.70;5.53;;;16.60;99.90;;;;;;5018961;28;20045;-73
2022/06/30 04:07:22;;;;;;;6.28;5.72;;;16.70;99.90;;;;;;5030685;28;20102;-74
2022/06/30 04:09:48;;;;;;;6.95;6.28;;;16.70;99.90;;;;;;5033825;28;20535;-73
2022/06/30 04:12:14;;;;;;;6.30;5.70;;;16.70;99.90;;;;;;5035093;28;20028;-73
2022/06/30 04:14:39;;;;;;;6.93;5.82;;;16.70;99.90;;;;;;5018501;28;20067;-73
2022/06/30 04:17:05;;;;;;;6.85;6.15;;;16.80;99.90;;;;;;5020552;28;20044;-74
2022/06/30 04:19:31;;;;;;;5.85;5.35;;;16.80;99.90;;;;;;5040734;28;20029;-73
2022/06/30 04:21:57;;;;;;;6.05;5.55;;;16.80;99.90;;;;;;5018939;28;20025;-73
2022/06/30 04:24:23;;;;;;;5.40;4.90;;;16.90;99.90;;;;;;5030161;28;20542;-73
2022/06/30 04:26:49;;;;;;;6.05;5.40;;;16.90;99.90;;;;;;5022392;28;20080;-73
2022/06/30 04:29:14;;;;;;;5.85;5.35;;;16.90;99.90;;;;;;5039976;28;20033;-74
2022/06/30 04:34:24;;;;;;;6.45;5.85;;;17.00;99.90;;;;;;5029358;28;20025;-73
2022/06/30 04:36:50;;;;;;;6.47;5.88;;;17.10;99.90;;;;;;5004053;28;20108;-73
2022/06/30 04:39:16;;;;;;;6.50;5.40;;;17.20;99.90;;;;;;5040445;28;20480;-73
2022/06/30 04:41:41;;;;;;;6.90;6.20;;;17.40;99.90;;;;;;5039892;28;20033;-74
2022/06/30 04:44:07;;;;;;;6.80;5.60;;;17.50;99.90;;;;;;5020736;28;20040;-73
2022/06/30 04:46:33;;;;;;;6.20;5.50;;;17.60;99.90;;;;;;5022456;28;20025;-73
2022/06/30 04:48:59;;;;;;;6.22;5.65;;;17.90;99.90;;;;;;5037089;28;20048;-73
2022/06/30 04:51:24;;;;;;;6.65;6.05;;;18.10;99.90;;;;;;5023257;28;20392;-74
2022/06/30 04:53:51;;;;;;;6.63;6.03;;;18.40;99.90;;;;;;5037329;28;20052;-73
2022/06/30 04:56:17;;;;;;;7.80;7.10;;;18.50;99.90;;;;;;5044988;28;20064;-73
2022/06/30 04:58:44;;;;;;;7.10;6.43;;;18.70;99.90;;;;;;5041147;28;20355;-74
2022/06/30 05:01:11;;;;;;;6.95;6.28;;;18.90;99.90;;;;;;5040091;28;20045;-74
2022/06/30 05:03:37;;;;;;;7.05;6.38;;;19.10;99.90;;;;;;5027275;28;20496;-74
2022/06/30 05:06:05;;;;;;;7.75;7.03;;;19.30;99.90;;;;;;5039145;28;20093;-74
2022/06/30 05:08:31;;;;;;;7.35;6.65;;;19.50;99.90;;;;;;5015658;28;20107;-74
2022/06/30 05:10:57;;;;;;;7.85;6.95;;;19.60;99.90;;;;;;5034028;28;20033;-74
2022/06/30 05:13:23;;;;;;;7.20;6.47;;;19.80;99.90;;;;;;5025682;28;20048;-74
2022/06/30 05:15:49;;;;;;;7.57;6.88;;;20.00;99.90;;;;;;5016682;28;20514;-74
2022/06/30 05:18:15;;;;;;;8.70;7.63;;;20.10;99.90;;;;;;5022689;28;20137;-74
2022/06/30 05:20:41;;;;;;;8.85;7.82;;;20.30;99.90;;;;;;5034002;28;20147;-74
2022/06/30 05:23:07;;;;;;;8.52;7.70;;;20.40;99.90;;;;;;5036732;28;20038;-76
2022/06/30 05:28:18;;;;;;;8.80;8.00;;;20.70;99.90;;;;;;5026682;28;20036;-74
2022/06/30 05:30:44;;;;;;;9.82;8.85;;;20.80;99.90;;;;;;5034397;28;20362;-74
2022/06/30 05:33:10;;;;;;;10.63;9.52;;;20.90;99.90;;;;;;5024929;28;20037;-74
2022/06/30 05:35:36;;;;;;;11.02;9.23;;;20.90;99.90;;;;;;5028028;28;20031;-74
2022/06/30 05:38:01;;;;;;;10.23;9.23;;;21.10;99.90;;;;;;5034428;28;20029;-74
2022/06/30 05:40:29;;;;;;;10.27;9.32;;;21.20;99.90;;;;;;5049472;28;20037;-74
2022/06/30 05:42:54;;;;;;;9.63;8.63;;;21.40;99.90;;;;;;5021215;28;20113;-74
2022/06/30 05:45:20;;;;;;;10.30;8.95;;;21.50;99.90;;;;;;5023512;28;20108;-74
2022/06/30 05:47:51;;;;;;;11.00;10.00;;;21.70;99.90;;;;;;5032746;28;20028;-74
2022/06/30 05:50:19;;;;;;;9.43;8.63;;;21.80;99.90;;;;;;5037043;28;20143;-74
2022/06/30 05:52:45;;;;;;;10.13;8.57;;;21.90;99.90;;;;;;5017927;28;20365;-74
2022/06/30 05:55:11;;;;;;;9.60;8.70;;;22.10;99.90;;;;;;5022389;28;20072;-74
2022/06/30 05:57:56;;;;;;;9.30;8.43;;;22.10;99.90;;;;;;5008325;28;20416;-75
2022/06/30 06:00:24;;;;;;;10.07;9.18;;;22.40;99.90;;;;;;5022818;28;20514;-74
2022/06/30 06:02:50;;;;;;;10.02;9.07;;;22.40;99.90;;;;;;5038710;28;20025;-74
2022/06/30 06:05:16;;;;;;;11.00;9.90;;;22.60;99.90;;;;;;5038829;28;20075;-74
2022/06/30 06:07:43;;;;;;;8.93;8.10;;;22.60;99.90;;;;;;5023741;28;20477;-74
2022/06/30 06:10:10;;;;;;;9.93;9.02;;;22.80;99.90;;;;;;5023814;28;20056;-74
2022/06/30 06:12:36;;;;;;;8.15;7.43;;;22.80;99.90;;;;;;5019307;28;20461;-75
2022/06/30 06:15:03;;;;;;;9.05;8.18;;;23.10;99.90;;;;;;5025145;28;20544;-74
2022/06/30 06:17:30;;;;;;;7.72;7.03;;;22.90;99.90;;;;;;5029094;28;20087;-75
2022/06/30 06:19:57;;;;;;;8.35;7.65;;;23.20;99.90;;;;;;5011549;28;20040;-74
2022/06/30 06:22:22;;;;;;;7.30;6.55;;;23.40;99.90;;;;;;5021328;28;20028;-75
2022/06/30 06:24:48;;;;;;;7.97;7.28;;;23.40;99.90;;;;;;5017817;28;20029;-74
2022/06/30 06:27:14;;;;;;;7.32;6.05;;;23.40;99.90;;;;;;5038252;28;20033;-74
2022/06/30 06:29:40;;;;;;;8.25;7.45;;;23.70;99.90;;;;;;5039395;28;20033;-74
2022/06/30 06:32:06;;;;;;;10.30;7.25;;;23.70;99.90;;;;;;5012539;28;20449;-74
2022/06/30 06:34:31;;;;;;;8.40;7.53;;;23.50;99.90;;;;;;5021392;28;20543;-74
2022/06/30 06:36:57;;;;;;;8.63;7.82;;;24.00;99.90;;;;;;5020347;28;20059;-75
2022/06/30 06:39:22;;;;;;;7.65;7.03;;;24.00;99.90;;;;;;5026802;28;20087;-76
2022/06/30 06:41:48;;;;;;;7.53;6.53;;;24.40;99.90;;;;;;5024077;28;20517;-74
2022/06/30 06:44:14;;;;;;;6.80;6.20;;;24.50;99.90;;;;;;5044060;28;20025;-75
2022/06/30 06:46:39;;;;;;;8.45;7.65;;;24.60;99.90;;;;;;5030965;28;20105;-75
2022/06/30 06:49:07;;;;;;;7.18;6.57;;;24.70;99.90;;;;;;5045596;28;20052;-75
2022/06/30 06:51:34;;;;;;;7.97;7.22;;;24.70;99.90;;;;;;5040619;28;20043;-74
2022/06/30 06:54:00;;;;;;;5.57;4.95;;;24.80;99.90;;;;;;5030202;28;20037;-76
2022/06/30 06:56:27;;;;;;;6.40;5.50;;;25.00;99.90;;;;;;5042757;28;20028;-75
2022/06/30 06:58:53;;;;;;;4.70;3.90;;;25.10;99.90;;;;;;5039782;28;20092;-75
2022/06/30 07:01:18;;;;;;;6.07;4.90;;;25.50;99.90;;;;;;5038403;28;20041;-74
2022/06/30 07:03:44;;;;;;;5.70;5.22;;;25.50;99.90;;;;;;5037133;28;20046;-75
2022/06/30 07:06:10;;;;;;;6.18;5.43;;;25.40;99.90;;;;;;5040179;28;20049;-74
2022/06/30 07:08:36;;;;;;;5.97;5.38;;;25.50;99.90;;;;;;5025605;28;20401;-75
2022/06/30 07:11:03;;;;;;;5.40;4.95;;;25.50;99.90;;;;;;5043565;28;20029;-77
2022/06/30 07:13:30;;;;;;;5.43;4.93;;;25.80;99.90;;;;;;5022378;28;20074;-75
2022/06/30 07:15:55;;;;;;;6.28;5.40;;;25.70;99.90;;;;;;5031237;28;20033;-75
2022/06/30 07:18:21;;;;;;;3.60;3.30;;;25.40;99.90;;;;;;5044991;28;20025;-75
2022/06/30 07:20:48;;;;;;;7.97;6.10;;;25.70;99.90;;;;;;5015414;28;20036;-75
2022/06/30 07:23:14;;;;;;;6.75;6.05;;;24.80;99.90;;;;;;5042916;28;20417;-76
2022/06/30 07:25:40;;;;;;;6.55;5.15;;;25.00;99.90;;;;;;5043292;28;20025;-75
2022/06/30 07:28:06;;;;;;;7.15;6.00;;;25.40;99.90;;;;;;5025943;28;20112;-75
2022/06/30 07:30:31;;;;;;;7.55;5.70;;;24.90;99.90;;;;;;5039849;28;20425;-75
2022/06/30 07:32:57;;;;;;;5.70;4.72;;;24.80;99.90;;;;;;5021317;28;20032;-75
2022/06/30 07:35:23;;;;;;;7.28;6.00;;;24.80;99.90;;;;;;5028993;28;20109;-76
2022/06/30 07:37:48;;;;;;;8.38;6.35;;;24.60;99.90;;;;;;5026502;28;20472;-75
2022/06/30 07:40:14;;;;;;;5.22;3.40;;;24.70;99.90;;;;;;5039889;28;20037;-75
2022/06/30 07:42:41;;;;;;;5.10;4.60;;;25.50;99.90;;;;;;5052678;28;20336;-75
2022/06/30 07:45:08;;;;;;;5.22;3.30;;;25.50;99.90;;;;;;5042427;28;20017;-76
2022/06/30 07:47:34;;;;;;;3.70;3.33;;;25.80;99.90;;;;;;5044591;28;20021;-78
2022/06/30 07:50:00;;;;;;;5.90;4.60;;;25.90;99.90;;;;;;5021597;28;20037;-75
2022/06/30 07:52:26;;;;;;;5.82;4.07;;;25.00;99.90;;;;;;5037145;28;20040;-75
2022/06/30 07:54:51;;;;;;;5.60;4.43;;;24.80;99.90;;;;;;5040212;28;20013;-75
2022/06/30 07:57:21;;;;;;;7.03;5.10;;;24.90;99.90;;;;;;5022606;28;20533;-75
2022/06/30 07:59:46;;;;;;;7.40;4.93;;;25.10;99.90;;;;;;5040352;28;20040;-75
2022/06/30 08:02:12;;;;;;;4.63;3.75;;;24.90;99.90;;;;;;5038106;28;20122;-75
2022/06/30 08:04:38;;;;;;;7.20;4.95;;;24.90;99.90;;;;;;5027305;28;20068;-76
2022/06/30 08:07:05;;;;;;;3.75;3.22;;;25.10;99.90;;;;;;5021677;28;20054;-76
2022/06/30 08:09:31;;;;;;;5.93;3.75;;;25.20;99.90;;;;;;5030970;28;20033;-75
2022/06/30 08:11:57;;;;;;;6.15;5.55;;;25.70;99.90;;;;;;5030685;28;20025;-76
2022/06/30 08:14:22;;;;;;;8.88;5.85;;;25.30;99.90;;;;;;5039976;28;20025;-75
2022/06/30 08:16:49;;;;;;;11.07;7.03;;;25.00;99.90;;;;;;5019829;28;20021;-75
2022/06/30 08:19:16;;;;;;;8.15;5.45;;;24.90;99.90;;;;;;5037862;28;20124;-75
2022/06/30 08:21:42;;;;;;;8.48;7.38;;;25.00;99.90;;;;;;5039731;28;20033;-75
2022/06/30 08:24:08;;;;;;;7.65;6.35;;;24.80;99.90;;;;;;5023783;28;20469;-75
2022/06/30 08:26:34;;;;;;;9.98;8.68;;;24.90;99.90;;;;;;5052556;28;20033;-76
2022/06/30 08:29:00;;;;;;;11.00;9.88;;;24.90;99.90;;;;;;5037566;28;20035;-76
2022/06/30 08:31:27;;;;;;;13.38;11.63;;;24.80;99.90;;;;;;5027415;28;20061;-75
2022/06/30 08:33:54;;;;;;;10.85;9.52;;;24.50;99.90;;;;;;5027626;28;20029;-75
2022/06/30 08:36:20;;;;;;;12.32;11.02;;;24.70;99.90;;;;;;5051770;28;20120;-75
2022/06/30 08:38:46;;;;;;;18.48;16.67;;;24.90;99.90;;;;;;5040263;28;20029;-75
2022/06/30 08:43:59;;;;;;;18.25;16.45;;;24.40;99.90;;;;;;5039265;28;20035;-75
2022/06/30 08:46:26;;;;;;;17.42;15.60;;;24.30;99.90;;;;;;5034979;28;22129;-74
2022/06/30 08:48:52;;;;;;;16.25;14.30;;;24.50;99.90;;;;;;5028889;28;20051;-75
2022/06/30 08:51:19;;;;;;;15.18;13.60;;;24.80;99.90;;;;;;5037245;28;20033;-76
2022/06/30 08:53:51;;;;;;;14.32;12.82;;;24.80;99.90;;;;;;5026634;28;20036;-75
2022/06/30 08:56:17;;;;;;;13.75;12.35;;;25.30;99.90;;;;;;5020677;28;20037;-75
2022/06/30 08:58:45;;;;;;;14.43;12.45;;;25.50;99.90;;;;;;5025896;28;20029;-76
2022/06/30 09:01:11;;;;;;;13.50;11.20;;;25.30;99.90;;;;;;5036140;28;20033;-75
2022/06/30 09:03:38;;;;;;;13.02;10.32;;;24.90;99.90;;;;;;5035438;28;20389;-75
2022/06/30 09:06:07;;;;;;;13.43;12.13;;;25.10;99.90;;;;;;5011133;28;20084;-75
2022/06/30 09:08:33;;;;;;;13.02;11.70;;;25.20;99.90;;;;;;5037913;28;20025;-75
2022/06/30 09:10:58;;;;;;;17.48;12.02;;;25.10;99.90;;;;;;5027221;28;20605;-75
2022/06/30 09:13:25;;;;;;;13.57;11.52;;;24.90;99.90;;;;;;5011579;28;20320;-75
2022/06/30 09:15:51;;;;;;;13.02;11.73;;;24.90;99.90;;;;;;5043949;28;20037;-75
2022/06/30 09:18:22;;;;;;;10.88;9.77;;;25.10;99.90;;;;;;5021183;28;20075;-76
2022/06/30 09:20:47;;;;;;;9.75;8.50;;;25.20;99.90;;;;;;5015274;28;20102;-75
2022/06/30 09:23:31;;;;;;;6.88;6.22;;;25.10;99.90;;;;;;5009354;28;20025;-75
2022/06/30 09:26:01;;;;;;;7.28;6.55;;;25.30;99.90;;;;;;5018802;28;20048;-76
2022/06/30 09:28:41;;;;;;;;;;;25.50;99.90;;;;;;5035820;28;21697;-75
2022/06/30 09:31:07;;;;;;;6.80;4.93;;;25.60;99.90;;;;;;5015501;28;19913;-75
2022/06/30 09:33:35;;;;;;;8.80;7.57;;;25.60;99.90;;;;;;5032964;28;20056;-75
2022/06/30 09:36:27;;;;;;;10.15;8.73;;;25.70;99.90;;;;;;5026464;28;20029;-77
2022/06/30 09:39:07;;;;;;;10.77;9.02;;;25.70;99.90;;;;;;5032337;28;20116;-75
2022/06/30 09:41:35;;;;;;;6.22;5.25;;;25.60;99.90;;;;;;5006169;28;20176;-75
2022/06/30 09:44:16;;;;;;;8.70;6.13;;;26.00;99.90;;;;;;5023244;28;20029;-76
2022/06/30 09:46:59;;;;;;;6.70;4.57;;;25.90;99.90;;;;;;5042345;28;20047;-75
2022/06/30 09:49:31;;;;;;;4.68;3.67;;;25.70;99.90;;;;;;5039371;28;20036;-76
2022/06/30 09:51:59;;;;;;;5.13;2.35;;;25.60;99.90;;;;;;5027194;28;20029;-76
2022/06/30 09:54:26;;;;;;;7.05;6.25;;;26.30;99.90;;;;;;5039694;28;20413;-75
2022/06/30 09:57:02;;;;;;;7.97;5.95;;;25.80;99.90;;;;;;5021475;28;20025;-75
2022/06/30 09:59:28;;;;;;;8.25;5.63;;;25.60;99.90;;;;;;5023958;28;20053;-74
2022/06/30 10:01:55;;;;;;;10.73;5.95;;;26.00;99.90;;;;;;5019107;28;20280;-75
2022/06/30 10:04:20;;;;;;;6.13;5.45;;;26.20;99.90;;;;;;5028726;28;20291;-75
2022/06/30 10:06:46;;;;;;;6.03;5.00;;;26.10;99.90;;;;;;5032325;28;20269;-75
2022/06/30 10:09:17;;;;;;;7.75;4.28;;;26.10;99.90;;;;;;5021621;28;20048;-75
2022/06/30 10:11:44;;;;;;;5.97;2.08;;;25.80;99.90;;;;;;5016228;28;20045;-75
2022/06/30 10:14:11;;;;;;;1.88;0.70;;;25.80;99.90;;;;;;5032634;28;20037;-75
2022/06/30 10:16:41;;;;;;;4.90;0.60;;;25.60;99.90;;;;;;5036625;28;20086;-75
2022/06/30 10:19:09;;;;;;;3.80;0.65;;;25.80;99.90;;;;;;5028543;28;20093;-74
2022/06/30 10:21:37;;;;;;;2.75;0.95;;;26.00;99.90;;;;;;5011540;28;20474;-76
2022/06/30 10:24:05;;;;;;;2.85;0.80;;;26.20;99.90;;;;;;5026031;28;20528;-74
2022/06/30 10:29:16;;;;;;;2.28;0.60;;;26.20;99.90;;;;;;5037317;28;20036;-75
2022/06/30 10:31:51;;;;;;;4.30;0.93;;;27.00;99.90;;;;;;5028267;28;20086;-74
2022/06/30 10:34:24;;;;;;;3.90;0.80;;;26.20;99.90;;;;;;5038708;28;20021;-77
2022/06/30 10:37:03;;;;;;;5.05;1.13;;;26.10;99.90;;;;;;5011496;28;20051;-75
2022/06/30 10:39:48;;;;;;;2.22;0.80;;;26.10;99.90;;;;;;5029421;28;20125;-75
2022/06/30 10:42:49;;;;;;;1.55;0.50;;;26.50;99.90;;;;;;5021732;28;20082;-75
2022/06/30 10:45:27;;;;;;;4.70;0.63;;;27.00;99.90;;;;;;5039633;28;20036;-75
2022/06/30 10:48:10;;;;;;;2.75;0.63;;;26.50;99.90;;;;;;5035086;28;20461;-75
2022/06/30 10:50:39;;;;;;;2.85;0.40;;;27.10;99.90;;;;;;5037025;28;20037;-75
2022/06/30 10:53:07;;;;;;;2.58;0.50;;;26.80;99.90;;;;;;5038426;28;20363;-75
2022/06/30 10:55:55;;;;;;;2.67;0.40;;;26.40;99.90;;;;;;5020476;28;20029;-76
2022/06/30 10:58:21;;;;;;;1.67;0.40;;;26.30;99.90;;;;;;5020720;28;20033;-74
2022/06/30 11:01:05;;;;;;;2.22;0.43;;;26.20;99.90;;;;;;5039756;28;20049;-75
2022/06/30 11:03:40;;;;;;;1.90;0.30;;;26.60;99.90;;;;;;5033968;28;20037;-75
2022/06/30 11:06:11;;;;;;;2.63;0.40;;;27.30;99.90;;;;;;5022790;28;20411;-75
2022/06/30 11:08:37;;;;;;;2.28;0.40;;;26.80;99.90;;;;;;5026843;28;20585;-75
2022/06/30 11:11:22;;;;;;;1.38;0.30;;;26.70;99.90;;;;;;5026813;28;20065;-75
2022/06/30 11:14:00;;;;;;;2.38;0.40;;;27.70;99.90;;;;;;5004343;28;20769;-75
2022/06/30 11:16:26;;;;;;;1.43;0.40;;;27.10;99.90;;;;;;5017486;28;20111;-75
2022/06/30 11:18:52;;;;;;;1.40;0.30;;;26.90;99.90;;;;;;5022259;28;20119;-75
2022/06/30 11:21:17;;;;;;;6.93;0.60;;;27.00;99.90;;;;;;5028527;28;20040;-76
2022/06/30 11:23:46;;;;;;;2.22;0.50;;;27.20;99.90;;;;;;5018762;28;20527;-76
2022/06/30 11:28:59;;;;;;;3.17;0.40;;;27.00;99.90;;;;;;5024529;28;20434;-75
2022/06/30 11:31:32;;;;;;;3.03;0.50;;;27.20;99.90;;;;;;5022870;28;20511;-75
2022/06/30 11:34:07;;;;;;;3.17;0.40;;;27.20;99.90;;;;;;5037214;28;20071;-75
2022/06/30 11:36:35;;;;;;;2.20;0.70;;;27.20;99.90;;;;;;5024059;28;20032;-75
2022/06/30 11:39:07;;;;;;;3.15;0.68;;;26.70;99.90;;;;;;5019882;28;20055;-74
2022/06/30 11:44:18;;;;;;;5.53;0.60;;;26.50;99.90;;;;;;5022770;28;20078;-75
2022/06/30 11:46:51;;;;;;;2.67;0.63;;;26.70;99.90;;;;;;5037477;28;20474;-75
2022/06/30 11:49:17;;;;;;;2.88;0.47;;;27.00;99.90;;;;;;5010433;28;20032;-75
2022/06/30 11:51:44;;;;;;;2.45;0.40;;;27.00;99.90;;;;;;5026799;28;20030;-75
2022/06/30 11:54:11;;;;;;;2.85;0.60;;;27.40;99.90;;;;;;5036211;28;20033;-75
2022/06/30 11:56:45;;;;;;;2.25;0.50;;;27.40;99.90;;;;;;5019910;28;20033;-75
2022/06/30 11:59:11;;;;;;;3.65;0.77;;;27.30;99.90;;;;;;5024528;28;20473;-75
2022/06/30 12:01:36;;;;;;;4.13;0.60;;;27.20;99.90;;;;;;5029545;28;20037;-75
2022/06/30 12:04:16;;;;;;;3.78;0.65;;;27.00;99.90;;;;;;5034542;28;20013;-75
2022/06/30 12:06:42;;;;;;;3.67;0.30;;;27.40;99.90;;;;;;5025276;28;20709;-75
2022/06/30 12:09:08;;;;;;;2.10;0.30;;;28.40;99.90;;;;;;5029955;28;20065;-75
2022/06/30 12:11:35;;;;;;;3.47;0.60;;;28.30;99.90;;;;;;5029055;28;20061;-74
2022/06/30 12:14:01;;;;;;;5.00;0.50;;;27.80;99.90;;;;;;5024990;28;20045;-75
2022/06/30 12:16:27;;;;;;;3.63;0.40;;;28.00;99.90;;;;;;5020278;28;20025;-75
2022/06/30 12:18:53;;;;;;;2.50;0.40;;;28.20;99.90;;;;;;5029199;28;20380;-75
2022/06/30 12:21:19;;;;;;;2.10;0.30;;;28.20;99.90;;;;;;5014046;28;20036;-76
2022/06/30 12:23:45;;;;;;;1.05;0.30;;;28.30;99.90;;;;;;5035164;28;20091;-75
2022/06/30 12:26:11;;;;;;;2.28;0.45;;;28.20;99.90;;;;;;5020463;28;20128;-75
2022/06/30 12:28:48;;;;;;;1.65;0.30;;;27.80;99.90;;;;;;5026313;28;20051;-75
2022/06/30 12:31:31;;;;;;;1.52;0.40;;;28.50;99.90;;;;;;5036412;28;20486;-75
2022/06/30 12:33:58;;;;;;;1.95;0.47;;;28.00;99.90;;;;;;5017833;28;20056;-74
2022/06/30 12:36:29;;;;;;;2.42;0.40;;;28.00;99.90;;;;;;5045170;28;20025;-75
2022/06/30 12:38:55;;;;;;;3.05;0.30;;;28.10;99.90;;;;;;5032066;28;20063;-75
2022/06/30 12:41:23;;;;;;;1.38;0.28;;;28.20;99.90;;;;;;5031374;28;20037;-75
2022/06/30 12:43:50;;;;;;;1.15;0.30;;;28.40;99.90;;;;;;5029533;28;20041;-75
2022/06/30 12:46:17;;;;;;;0.80;0.20;;;28.80;99.90;;;;;;5014220;28;20179;-75
2022/06/30 12:48:54;;;;;;;0.60;0.20;;;29.50;99.90;;;;;;5014745;28;20036;-75
2022/06/30 12:51:32;;;;;;;4.40;0.47;;;29.30;99.90;;;;;;5045113;28;20037;-76
2022/06/30 12:54:06;;;;;;;2.15;0.35;;;28.70;99.90;;;;;;5014066;28;20037;-77
2022/06/30 12:56:32;;;;;;;3.03;0.40;;;28.70;99.90;;;;;;5019652;28;20036;-76
2022/06/30 12:59:10;;;;;;;2.03;0.32;;;29.40;99.90;;;;;;5031602;28;20029;-75
2022/06/30 13:01:47;;;;;;;2.60;0.38;;;29.00;99.90;;;;;;5027141;28;20049;-75
2022/06/30 13:04:15;;;;;;;1.67;0.30;;;28.30;99.90;;;;;;5026610;28;20535;-75
2022/06/30 13:06:43;;;;;;;1.58;0.20;;;28.60;99.90;;;;;;5013077;28;20118;-75
2022/06/30 13:09:18;;;;;;;1.10;0.30;;;29.20;99.90;;;;;;5018085;28;20142;-75
2022/06/30 13:11:55;;;;;;;1.05;0.20;;;29.40;99.90;;;;;;5011850;28;20123;-75